createdAt,value
2018-09-08T00:00:02.273Z,1.23
2018-09-08T00:02:30.456Z,1.13
2018-09-08T00:04:58.635Z,1.10
2018-09-08T00:07:32.310Z,1.10
2018-09-08T00:10:00.733Z,0.95
2018-09-08T00:12:28.936Z,1.10
2018-09-08T00:15:02.497Z,1.00
2018-09-08T00:17:36.237Z,1.37
2018-09-08T00:20:10.024Z,1.02
2018-09-08T00:22:43.720Z,1.30
2018-09-08T00:25:17.392Z,1.25
2018-09-08T00:27:54.765Z,1.30
2018-09-08T00:30:22.983Z,1.00
2018-09-08T00:32:51.207Z,1.27
2018-09-08T00:35:19.390Z,1.40
2018-09-08T00:37:47.631Z,1.32
2018-09-08T00:40:15.793Z,1.40
2018-09-08T00:42:50.744Z,1.40
2018-09-08T00:45:18.924Z,1.20
2018-09-08T00:47:47.130Z,1.70
2018-09-08T00:50:15.350Z,1.60
2018-09-08T00:52:43.507Z,1.37
2018-09-08T00:55:11.772Z,1.32
2018-09-08T00:57:39.993Z,1.30
2018-09-08T01:00:08.224Z,1.25
2018-09-08T01:02:36.449Z,1.35
2018-09-08T01:05:04.655Z,1.10
2018-09-08T01:07:32.872Z,1.12
2018-09-08T01:10:02.792Z,1.30
2018-09-08T01:12:31.302Z,1.20
2018-09-08T01:14:59.948Z,1.30
2018-09-08T01:17:28.122Z,1.40
2018-09-08T01:19:56.462Z,1.30
2018-09-08T01:22:24.642Z,1.00
2018-09-08T01:24:52.868Z,1.00
2018-09-08T01:27:21.064Z,0.93
2018-09-08T01:29:49.622Z,1.30
2018-09-08T01:32:17.805Z,1.07
2018-09-08T01:34:46.100Z,1.00
2018-09-08T01:37:14.260Z,1.07
2018-09-08T01:39:42.416Z,1.15
2018-09-08T01:42:10.673Z,0.90
2018-09-08T01:44:38.873Z,1.00
2018-09-08T01:47:07.820Z,1.03
2018-09-08T01:49:36.121Z,0.90
2018-09-08T01:52:04.300Z,1.10
2018-09-08T01:54:32.492Z,1.10
2018-09-08T01:57:00.695Z,1.20
2018-09-08T01:59:30.549Z,1.30
2018-09-08T02:01:58.733Z,1.37
2018-09-08T02:04:26.931Z,1.45
2018-09-08T02:06:55.107Z,1.00
2018-09-08T02:09:23.307Z,1.20
2018-09-08T02:11:51.489Z,0.80
2018-09-08T02:14:19.744Z,0.93
2018-09-08T02:16:48.041Z,1.10
2018-09-08T02:19:16.251Z,1.02
2018-09-08T02:21:44.434Z,1.03
2018-09-08T02:24:12.599Z,0.90
2018-09-08T02:26:40.758Z,1.10
2018-09-08T02:29:08.963Z,1.00
2018-09-08T02:31:37.156Z,0.90
2018-09-08T02:34:05.382Z,0.90
2018-09-08T02:36:33.606Z,1.37
2018-09-08T02:39:09.181Z,1.02
2018-09-08T02:41:37.429Z,1.10
2018-09-08T02:44:05.626Z,1.30
2018-09-08T02:46:33.798Z,0.97
2018-09-08T02:49:08.625Z,1.12
2018-09-08T02:51:35.810Z,1.10
2018-09-08T02:54:03.032Z,1.25
2018-09-08T02:56:30.268Z,0.80
2018-09-08T02:58:57.467Z,0.90
2018-09-08T03:01:24.702Z,0.80
2018-09-08T03:03:51.924Z,1.17
2018-09-08T03:06:19.152Z,0.90
2018-09-08T03:08:46.368Z,1.00
2018-09-08T03:11:13.569Z,1.20
2018-09-08T03:13:40.783Z,1.07
2018-09-08T03:16:08.016Z,0.93
2018-09-08T03:18:35.223Z,1.15
2018-09-08T03:21:02.508Z,1.17
2018-09-08T03:23:29.722Z,0.80
2018-09-08T03:25:56.908Z,1.00
2018-09-08T03:28:24.170Z,0.88
2018-09-08T03:30:51.422Z,1.20
2018-09-08T03:33:18.640Z,0.65
2018-09-08T03:35:45.849Z,0.90
2018-09-08T03:38:13.063Z,1.20
2018-09-08T03:40:40.246Z,1.15
2018-09-08T03:43:07.478Z,1.00
2018-09-08T03:45:34.705Z,1.10
2018-09-08T03:48:01.941Z,1.00
2018-09-08T03:50:29.142Z,0.90
2018-09-08T03:52:56.355Z,1.10
2018-09-08T03:55:23.595Z,1.25
2018-09-08T03:57:50.929Z,1.00
2018-09-08T04:00:18.146Z,0.88
2018-09-08T04:02:46.371Z,0.90
2018-09-08T04:05:14.817Z,0.88
2018-09-08T04:07:43.004Z,1.00
2018-09-08T04:10:11.229Z,0.70
2018-09-08T04:12:39.422Z,1.35
2018-09-08T04:15:07.605Z,1.02
2018-09-08T04:17:35.805Z,0.93
2018-09-08T04:20:04.033Z,1.10
2018-09-08T04:22:34.803Z,1.00
2018-09-08T04:25:03.717Z,0.80
2018-09-08T04:27:31.932Z,1.03
2018-09-08T04:30:00.135Z,1.10
2018-09-08T04:32:28.357Z,1.03
2018-09-08T04:34:56.531Z,0.98
2018-09-08T04:37:24.739Z,1.00
2018-09-08T04:39:52.945Z,1.12
2018-09-08T04:42:21.122Z,0.88
2018-09-08T04:44:49.631Z,0.90
2018-09-08T04:47:17.819Z,1.10
2018-09-08T04:49:46.000Z,0.90
2018-09-08T04:52:14.188Z,1.10
2018-09-08T04:54:42.429Z,0.82
2018-09-08T04:57:10.653Z,1.10
2018-09-08T04:59:39.335Z,1.20
2018-09-08T05:02:07.606Z,0.93
2018-09-08T05:04:35.762Z,1.20
2018-09-08T05:07:03.986Z,0.97
2018-09-08T05:09:32.169Z,1.17
2018-09-08T05:12:00.335Z,1.20
2018-09-08T05:14:28.508Z,1.00
2018-09-08T05:16:56.760Z,0.90
2018-09-08T05:19:25.004Z,0.88
2018-09-08T05:21:53.157Z,1.00
2018-09-08T05:24:21.345Z,0.88
2018-09-08T05:26:49.574Z,1.37
2018-09-08T05:29:18.165Z,0.80
2018-09-08T05:31:46.352Z,1.00
2018-09-08T05:34:14.612Z,1.00
2018-09-08T05:36:42.764Z,1.00
2018-09-08T05:39:10.959Z,1.12
2018-09-08T05:41:39.192Z,0.90
2018-09-08T05:44:07.345Z,1.30
2018-09-08T05:46:35.540Z,1.20
2018-09-08T05:49:03.785Z,1.30
2018-09-08T05:51:32.088Z,1.02
2018-09-08T05:54:00.348Z,1.50
2018-09-08T05:56:28.545Z,1.10
2018-09-08T05:58:56.695Z,1.50
2018-09-08T06:01:24.892Z,1.40
2018-09-08T06:03:53.131Z,1.20
2018-09-08T06:06:21.384Z,1.10
2018-09-08T06:08:49.607Z,1.22
2018-09-08T06:11:17.737Z,1.33
2018-09-08T06:13:45.903Z,1.55
2018-09-08T06:16:14.075Z,1.50
2018-09-08T06:18:42.323Z,1.03
2018-09-08T06:21:10.533Z,1.60
2018-09-08T06:23:38.722Z,1.00
2018-09-08T06:26:06.908Z,1.23
2018-09-08T06:28:35.296Z,1.02
2018-09-08T06:31:03.470Z,1.20
2018-09-08T06:33:31.701Z,1.30
2018-09-08T06:35:59.820Z,1.20
2018-09-08T06:38:28.030Z,1.30
2018-09-08T06:40:56.264Z,1.10
2018-09-08T06:43:24.503Z,1.50
2018-09-08T06:45:52.692Z,1.40
2018-09-08T06:48:20.883Z,1.27
2018-09-08T06:50:49.097Z,1.10
2018-09-08T06:53:17.312Z,1.27
2018-09-08T06:55:45.508Z,1.20
2018-09-08T06:58:13.711Z,1.07
2018-09-08T07:00:41.995Z,1.03
2018-09-08T07:03:10.292Z,1.40
2018-09-08T07:05:38.535Z,1.00
2018-09-08T07:08:07.459Z,1.03
2018-09-08T07:10:35.676Z,1.30
2018-09-08T07:13:03.869Z,1.50
2018-09-08T07:15:32.079Z,1.00
2018-09-08T07:18:00.247Z,1.07
2018-09-08T07:20:28.388Z,1.10
2018-09-08T07:22:56.640Z,1.20
2018-09-08T07:25:24.805Z,1.50
2018-09-08T07:27:53.007Z,1.10
2018-09-08T07:30:21.211Z,1.20
2018-09-08T07:32:49.428Z,1.27
2018-09-08T07:35:17.622Z,1.20
2018-09-08T07:37:45.821Z,1.10
2018-09-08T07:40:14.005Z,1.13
2018-09-08T07:42:42.316Z,1.47
2018-09-08T07:45:10.513Z,1.03
2018-09-08T07:47:38.688Z,1.27
2018-09-08T07:50:06.924Z,1.43
2018-09-08T07:52:35.132Z,1.23
2018-09-08T07:55:03.349Z,1.10
2018-09-08T07:57:31.511Z,1.37
2018-09-08T07:59:59.705Z,1.00
2018-09-08T08:02:27.894Z,1.40
2018-09-08T08:04:56.120Z,1.10
2018-09-08T08:07:24.330Z,1.00
2018-09-08T08:09:52.525Z,1.23
2018-09-08T08:12:20.719Z,1.50
2018-09-08T08:14:48.885Z,1.10
2018-09-08T08:17:17.087Z,1.37
2018-09-08T08:19:45.269Z,0.93
2018-09-08T08:22:13.453Z,1.00
2018-09-08T08:24:41.604Z,1.20
2018-09-08T08:27:09.805Z,1.17
2018-09-08T08:29:38.313Z,1.20
2018-09-08T08:32:06.484Z,0.93
2018-09-08T08:34:34.684Z,1.20
2018-09-08T08:37:02.889Z,1.03
2018-09-08T08:39:31.071Z,1.03
2018-09-08T08:41:59.259Z,1.10
2018-09-08T08:44:27.430Z,1.27
2018-09-08T08:46:55.611Z,1.00
2018-09-08T08:49:23.806Z,1.13
2018-09-08T08:52:03.366Z,1.27
2018-09-08T08:54:38.736Z,1.20
2018-09-08T08:57:06.961Z,0.87
2018-09-08T08:59:35.203Z,1.07
2018-09-08T09:02:03.355Z,1.00
2018-09-08T09:04:31.551Z,0.90
2018-09-08T09:06:59.736Z,1.17
2018-09-08T09:09:27.935Z,1.10
2018-09-08T09:11:56.326Z,1.00
2018-09-08T09:14:24.347Z,1.00
2018-09-08T09:16:52.589Z,1.23
2018-09-08T09:19:35.134Z,1.10
2018-09-08T09:22:15.898Z,0.97
2018-09-08T09:24:53.869Z,0.77
2018-09-08T09:27:22.500Z,1.00
2018-09-08T09:29:50.943Z,0.90
2018-09-08T09:32:19.117Z,1.33
2018-09-08T09:34:47.271Z,0.93
2018-09-08T09:37:15.500Z,1.10
2018-09-08T09:39:43.663Z,1.13
2018-09-08T09:42:11.832Z,1.20
2018-09-08T09:44:40.043Z,1.10
2018-09-08T09:47:08.268Z,1.03
2018-09-08T09:49:37.236Z,1.00
2018-09-08T09:52:05.435Z,1.27
2018-09-08T09:54:33.662Z,1.00
2018-09-08T09:57:01.907Z,0.90
2018-09-08T09:59:31.789Z,0.83
2018-09-08T10:02:03.001Z,0.83
2018-09-08T10:04:31.185Z,1.33
2018-09-08T10:06:59.372Z,1.07
2018-09-08T10:09:27.953Z,1.00
2018-09-08T10:11:56.188Z,0.90
2018-09-08T10:14:24.329Z,0.90
2018-09-08T10:16:52.480Z,0.80
2018-09-08T10:19:20.652Z,0.90
2018-09-08T10:21:48.871Z,1.00
2018-09-08T10:24:17.025Z,1.30
2018-09-08T10:26:45.274Z,0.90
2018-09-08T10:29:13.797Z,0.80
2018-09-08T10:31:49.150Z,0.87
2018-09-08T10:34:16.949Z,0.80
2018-09-08T10:36:45.116Z,0.90
2018-09-08T10:39:13.350Z,1.00
2018-09-08T10:41:41.554Z,0.87
2018-09-08T10:44:10.781Z,0.60
2018-09-08T10:46:38.983Z,1.13
2018-09-08T10:49:07.196Z,0.90
2018-09-08T10:52:45.283Z,1.00
2018-09-08T10:55:13.477Z,0.60
2018-09-08T10:57:41.691Z,0.90
2018-09-08T11:00:10.712Z,0.77
2018-09-08T11:02:39.241Z,0.90
2018-09-08T11:05:08.049Z,0.70
2018-09-08T11:07:36.311Z,0.97
2018-09-08T11:10:04.882Z,0.70
2018-09-08T11:12:33.084Z,0.80
2018-09-08T11:15:01.255Z,1.00
2018-09-08T11:17:29.449Z,0.93
2018-09-08T11:19:57.646Z,0.73
2018-09-08T11:22:25.794Z,0.80
2018-09-08T11:24:54.028Z,1.20
2018-09-08T11:27:22.208Z,0.83
2018-09-08T11:29:50.367Z,0.90
2018-09-08T11:32:18.557Z,0.93
2018-09-08T11:34:46.746Z,0.60
2018-09-08T11:37:14.936Z,0.80
2018-09-08T11:39:43.180Z,0.97
2018-09-08T11:42:11.393Z,0.67
2018-09-08T11:44:39.594Z,0.90
2018-09-08T11:47:07.826Z,0.80
2018-09-08T11:49:36.098Z,0.80
2018-09-08T11:52:04.378Z,1.00
2018-09-08T11:54:32.571Z,0.80
2018-09-08T11:57:00.811Z,0.83
2018-09-08T11:59:30.729Z,1.00
2018-09-08T12:01:59.034Z,1.00
2018-09-08T12:04:27.228Z,0.90
2018-09-08T12:06:55.423Z,0.70
2018-09-08T12:09:23.652Z,0.90
2018-09-08T12:11:51.861Z,0.80
2018-09-08T12:14:20.042Z,0.70
2018-09-08T12:16:48.220Z,0.90
2018-09-08T12:19:16.509Z,0.90
2018-09-08T12:21:44.648Z,0.90
2018-09-08T12:24:12.812Z,0.70
2018-09-08T12:26:41.095Z,0.80
2018-09-08T12:29:09.285Z,0.80
2018-09-08T12:31:37.458Z,0.80
2018-09-08T12:34:05.705Z,0.80
2018-09-08T12:36:33.887Z,1.13
2018-09-08T12:39:02.079Z,0.77
2018-09-08T12:41:30.218Z,0.70
2018-09-08T12:43:58.379Z,0.80
2018-09-08T12:46:26.575Z,0.60
2018-09-08T12:48:54.794Z,0.67
2018-09-08T12:51:23.029Z,0.60
2018-09-08T12:53:51.217Z,0.80
2018-09-08T12:56:19.409Z,0.90
2018-09-08T12:58:47.629Z,0.90
2018-09-08T13:01:15.801Z,1.10
2018-09-08T13:03:43.995Z,0.67
2018-09-08T13:06:12.249Z,0.70
2018-09-08T13:08:40.453Z,0.70
2018-09-08T13:11:08.635Z,0.90
2018-09-08T13:13:36.851Z,0.67
2018-09-08T13:16:05.027Z,0.90
2018-09-08T13:18:33.236Z,0.80
2018-09-08T13:21:01.402Z,0.80
2018-09-08T13:23:29.656Z,0.80
2018-09-08T13:25:57.888Z,0.77
2018-09-08T13:28:26.120Z,0.80
2018-09-08T13:30:54.291Z,0.63
2018-09-08T13:33:22.485Z,0.90
2018-09-08T13:35:50.664Z,0.87
2018-09-08T13:38:18.839Z,0.90
2018-09-08T13:40:47.033Z,0.83
2018-09-08T13:43:15.212Z,0.90
2018-09-08T13:45:43.428Z,0.90
2018-09-08T13:48:11.657Z,0.70
2018-09-08T13:50:39.878Z,0.80
2018-09-08T13:53:08.081Z,0.90
2018-09-08T13:55:36.268Z,0.70
2018-09-08T13:58:04.571Z,0.60
2018-09-08T14:00:33.141Z,1.03
2018-09-08T14:03:01.363Z,0.70
2018-09-08T14:05:29.521Z,0.87
2018-09-08T14:08:00.354Z,0.63
2018-09-08T14:10:28.547Z,0.87
2018-09-08T14:12:56.712Z,1.00
2018-09-08T14:15:24.967Z,0.90
2018-09-08T14:17:53.092Z,0.80
2018-09-08T14:20:21.315Z,0.70
2018-09-08T14:22:49.529Z,0.83
2018-09-08T14:25:17.724Z,0.90
2018-09-08T14:27:45.925Z,0.83
2018-09-08T14:30:14.118Z,0.80
2018-09-08T14:32:42.251Z,0.90
2018-09-08T14:35:17.140Z,0.80
2018-09-08T14:37:45.376Z,0.77
2018-09-08T14:40:13.619Z,0.80
2018-09-08T14:42:41.843Z,0.80
2018-09-08T14:45:10.046Z,0.80
2018-09-08T14:47:38.295Z,0.70
2018-09-08T14:50:06.448Z,0.70
2018-09-08T14:52:34.628Z,0.60
2018-09-08T14:55:02.875Z,0.80
2018-09-08T14:57:31.076Z,0.70
2018-09-08T14:59:59.301Z,0.80
2018-09-08T15:02:27.483Z,0.77
2018-09-08T15:04:55.722Z,1.07
2018-09-08T15:07:23.957Z,0.70
2018-09-08T15:09:52.149Z,0.77
2018-09-08T15:12:20.354Z,0.80
2018-09-08T15:14:48.547Z,0.93
2018-09-08T15:17:16.764Z,0.60
2018-09-08T15:19:44.980Z,0.77
2018-09-08T15:22:13.161Z,0.70
2018-09-08T15:24:41.349Z,0.60
2018-09-08T15:27:09.524Z,0.90
2018-09-08T15:29:37.848Z,0.73
2018-09-08T15:32:06.068Z,0.80
2018-09-08T15:34:34.271Z,0.60
2018-09-08T15:37:02.532Z,0.70
2018-09-08T15:39:30.748Z,0.70
2018-09-08T15:41:58.968Z,0.67
2018-09-08T15:44:27.165Z,0.70
2018-09-08T15:46:55.362Z,0.80
2018-09-08T15:49:23.531Z,0.80
2018-09-08T15:51:51.781Z,0.87
2018-09-08T15:54:19.956Z,1.03
2018-09-08T15:56:49.005Z,0.80
2018-09-08T15:59:17.783Z,0.90
2018-09-08T16:01:45.978Z,0.80
2018-09-08T16:04:14.198Z,0.80
2018-09-08T16:06:42.426Z,0.70
2018-09-08T16:09:10.616Z,0.73
2018-09-08T16:11:38.783Z,0.83
2018-09-08T16:14:07.002Z,0.80
2018-09-08T16:16:35.223Z,0.80
2018-09-08T16:19:03.399Z,0.90
2018-09-08T16:21:31.611Z,0.80
2018-09-08T16:23:59.796Z,0.80
2018-09-08T16:26:27.942Z,0.67
2018-09-08T16:28:56.088Z,0.80
2018-09-08T16:31:24.302Z,0.77
2018-09-08T16:33:52.505Z,0.67
2018-09-08T16:36:20.804Z,0.77
2018-09-08T16:38:49.041Z,0.80
2018-09-08T16:41:17.264Z,1.00
2018-09-08T16:43:45.416Z,0.97
2018-09-08T16:46:13.589Z,0.90
2018-09-08T16:48:41.887Z,0.80
2018-09-08T16:51:10.004Z,0.73
2018-09-08T16:53:38.184Z,1.10
2018-09-08T16:56:06.746Z,0.70
2018-09-08T16:58:34.955Z,0.70
2018-09-08T17:01:03.167Z,0.90
2018-09-08T17:03:31.355Z,1.07
2018-09-08T17:05:59.536Z,0.83
2018-09-08T17:08:27.743Z,1.10
2018-09-08T17:13:27.177Z,1.30
2018-09-08T17:15:55.382Z,1.07
2018-09-08T17:18:23.537Z,0.90
2018-09-08T17:20:51.728Z,0.90
2018-09-08T17:23:19.923Z,1.03
2018-09-08T17:25:48.143Z,0.90
2018-09-08T17:28:16.329Z,0.77
2018-09-08T17:30:44.591Z,0.83
2018-09-08T17:33:12.763Z,0.80
2018-09-08T17:35:40.976Z,1.00
2018-09-08T17:38:09.161Z,0.87
2018-09-08T17:40:37.383Z,0.70
2018-09-08T17:43:05.703Z,0.80
2018-09-08T17:45:33.890Z,0.90
2018-09-08T17:48:02.102Z,0.80
2018-09-08T17:50:30.363Z,0.90
2018-09-08T17:52:58.548Z,0.80
2018-09-08T17:55:26.766Z,0.90
2018-09-08T17:57:54.980Z,1.23
2018-09-08T18:00:23.130Z,1.00
2018-09-08T18:02:51.390Z,0.80
2018-09-08T18:05:19.584Z,0.80
2018-09-08T18:07:47.810Z,1.30
2018-09-08T18:10:15.974Z,0.90
2018-09-08T18:12:44.154Z,1.17
2018-09-08T18:15:12.407Z,1.10
2018-09-08T18:17:40.610Z,1.10
2018-09-08T18:20:08.846Z,1.00
2018-09-08T18:22:37.400Z,1.17
2018-09-08T18:25:05.703Z,1.10
2018-09-08T18:27:33.943Z,0.90
2018-09-08T18:30:02.151Z,1.40
2018-09-08T18:32:30.460Z,1.20
2018-09-08T18:34:58.671Z,1.00
2018-09-08T18:37:26.917Z,0.93
2018-09-08T18:39:55.168Z,1.30
2018-09-08T18:42:23.352Z,1.30
2018-09-08T18:44:51.561Z,1.10
2018-09-08T18:47:19.717Z,1.33
2018-09-08T18:49:47.888Z,1.10
2018-09-08T18:52:16.059Z,1.20
2018-09-08T18:54:44.323Z,1.20
2018-09-08T18:57:12.467Z,1.20
2018-09-08T18:59:41.064Z,1.10
2018-09-08T19:02:09.247Z,0.90
2018-09-08T19:04:37.424Z,1.00
2018-09-08T19:07:05.676Z,0.90
2018-09-08T19:09:33.878Z,0.90
2018-09-08T19:12:02.072Z,0.97
2018-09-08T19:14:35.476Z,1.00
2018-09-08T19:17:03.645Z,0.93
2018-09-08T19:19:31.842Z,1.10
2018-09-08T19:21:59.995Z,1.40
2018-09-08T19:24:33.607Z,5.50
2018-09-08T19:27:01.800Z,4.27
2018-09-08T19:29:36.262Z,2.80
2018-09-08T19:32:04.471Z,2.57
2018-09-08T19:34:32.723Z,1.90
2018-09-08T19:37:00.895Z,1.50
2018-09-08T19:39:29.057Z,1.57
2018-09-08T19:41:57.263Z,1.40
2018-09-08T19:44:25.463Z,1.80
2018-09-08T19:46:58.971Z,1.40
2018-09-08T19:49:27.543Z,2.07
2018-09-08T19:51:55.733Z,3.00
2018-09-08T19:54:23.942Z,2.10
2018-09-08T19:56:57.605Z,1.80
2018-09-08T19:59:27.193Z,1.33
2018-09-08T20:01:55.446Z,1.90
2018-09-08T20:04:23.616Z,1.87
2018-09-08T20:06:51.842Z,1.97
2018-09-08T20:09:20.082Z,1.40
2018-09-08T20:11:48.191Z,1.57
2018-09-08T20:14:16.396Z,1.60
2018-09-08T20:16:44.623Z,1.90
2018-09-08T20:19:12.783Z,2.37
2018-09-08T20:21:40.999Z,2.20
2018-09-08T20:24:09.202Z,2.60
2018-09-08T20:26:37.443Z,2.70
2018-09-08T20:29:05.555Z,2.73
2018-09-08T20:31:33.758Z,2.53
2018-09-08T20:34:01.943Z,2.47
2018-09-08T20:36:30.202Z,2.17
2018-09-08T20:38:58.319Z,1.70
2018-09-08T20:41:26.530Z,1.77
2018-09-08T20:43:54.712Z,1.80
2018-09-08T20:46:22.920Z,1.50
2018-09-08T20:48:51.119Z,1.47
2018-09-08T20:51:19.295Z,2.10
2018-09-08T20:53:47.531Z,1.90
2018-09-08T20:56:15.731Z,2.30
2018-09-08T20:58:44.032Z,1.77
2018-09-08T21:01:15.068Z,1.27
2018-09-08T21:03:43.308Z,1.40
2018-09-08T21:06:11.483Z,1.67
2018-09-08T21:08:39.656Z,1.97
2018-09-08T21:11:08.253Z,1.70
2018-09-08T21:13:36.482Z,1.70
2018-09-08T21:16:04.935Z,1.60
2018-09-08T21:18:33.735Z,1.67
2018-09-08T21:21:01.926Z,1.90
2018-09-08T21:23:30.189Z,2.17
2018-09-08T21:25:58.327Z,1.60
2018-09-08T21:28:26.531Z,1.70
2018-09-08T21:30:54.749Z,1.77
2018-09-08T21:33:23.006Z,1.60
2018-09-08T21:35:51.250Z,1.70
2018-09-08T21:38:19.447Z,1.60
2018-09-08T21:40:47.639Z,1.60
2018-09-08T21:43:15.880Z,1.90
2018-09-08T21:45:50.633Z,1.43
2018-09-08T21:48:18.851Z,1.70
2018-09-08T21:50:47.008Z,2.20
2018-09-08T21:53:15.265Z,1.67
2018-09-08T21:55:43.399Z,2.00
2018-09-08T21:58:11.575Z,1.90
2018-09-08T22:00:39.843Z,1.80
2018-09-08T22:03:08.058Z,2.10
2018-09-08T22:05:36.285Z,1.60
2018-09-08T22:08:04.463Z,2.23
2018-09-08T22:10:32.667Z,1.63
2018-09-08T22:13:00.867Z,1.90
2018-09-08T22:15:29.108Z,4.63
2018-09-08T22:17:57.272Z,3.20
2018-09-08T22:20:25.447Z,2.40
2018-09-08T22:22:53.651Z,5.30
2018-09-08T22:25:21.836Z,2.87
2018-09-08T22:27:50.027Z,2.23
2018-09-08T22:30:18.242Z,2.03
2018-09-08T22:32:46.705Z,1.97
2018-09-08T22:35:14.899Z,2.23
2018-09-08T22:37:43.107Z,2.00
2018-09-08T22:40:11.396Z,2.30
2018-09-08T22:42:39.624Z,1.80
2018-09-08T22:45:08.184Z,2.10
2018-09-08T22:47:36.508Z,1.80
2018-09-08T22:50:04.905Z,1.70
2018-09-08T22:52:33.137Z,2.00
2018-09-08T22:55:01.336Z,2.10
2018-09-08T22:57:29.583Z,1.77
2018-09-08T22:59:57.798Z,2.10
2018-09-08T23:02:25.971Z,1.80
2018-09-08T23:04:54.149Z,2.07
2018-09-08T23:07:22.312Z,1.93
2018-09-08T23:09:50.497Z,1.80
2018-09-08T23:12:18.737Z,1.97
2018-09-08T23:14:46.852Z,1.83
2018-09-08T23:17:15.048Z,1.70
2018-09-08T23:19:43.293Z,1.87
2018-09-08T23:22:11.498Z,1.73
2018-09-08T23:24:39.700Z,1.80
2018-09-08T23:27:07.860Z,1.73
2018-09-08T23:29:36.616Z,1.90
2018-09-08T23:32:04.828Z,1.60
2018-09-08T23:34:33.008Z,1.90
2018-09-08T23:37:01.263Z,1.90
2018-09-08T23:39:29.464Z,1.90
2018-09-08T23:41:57.662Z,2.23
2018-09-08T23:44:25.840Z,1.83
2018-09-08T23:46:54.004Z,2.00
2018-09-08T23:49:22.197Z,2.07
2018-09-08T23:51:50.412Z,2.03
2018-09-08T23:54:18.619Z,1.80
2018-09-08T23:56:46.807Z,2.07
2018-09-08T23:59:15.579Z,1.70
